createdAt,value
2019-03-17T00:00:25.866Z,992.43
2019-03-17T00:01:06.461Z,992.47
2019-03-17T00:01:56.835Z,992.45
2019-03-17T00:02:30.306Z,992.44
2019-03-17T00:03:10.802Z,992.36
2019-03-17T00:03:51.229Z,992.37
2019-03-17T00:04:33.860Z,992.39
2019-03-17T00:05:14.189Z,992.3
2019-03-17T00:05:54.800Z,992.42
2019-03-17T00:06:36.802Z,992.42
2019-03-17T00:07:19.158Z,992.47
2019-03-17T00:08:00.365Z,992.35
2019-03-17T00:08:40.727Z,992.35
2019-03-17T00:09:21.655Z,992.36
2019-03-17T00:10:07.967Z,992.42
2019-03-17T00:10:52.471Z,992.35
2019-03-17T00:11:32.008Z,992.39
2019-03-17T00:12:12.656Z,992.37
2019-03-17T00:12:57.752Z,992.32
2019-03-17T00:13:38.217Z,992.15
2019-03-17T00:14:18.783Z,992.08
2019-03-17T00:15:05.426Z,992.01
2019-03-17T00:15:43.244Z,992.13
2019-03-17T00:16:25.418Z,992.18
2019-03-17T00:17:05.860Z,992.31
2019-03-17T00:17:46.496Z,992.27
2019-03-17T00:18:28.812Z,992.29
2019-03-17T00:19:10.271Z,992.26
2019-03-17T00:19:52.404Z,992.1
2019-03-17T00:20:35.446Z,992.17
2019-03-17T00:21:15.807Z,992.09
2019-03-17T00:21:56.108Z,992.21
2019-03-17T00:22:37.091Z,992.22
2019-03-17T00:23:17.435Z,992.25
2019-03-17T00:23:57.901Z,992.24
2019-03-17T00:24:41.980Z,992.2
2019-03-17T00:25:24.024Z,992.15
2019-03-17T00:26:05.392Z,992.14
2019-03-17T00:26:45.782Z,992.26
2019-03-17T00:27:26.413Z,991.93
2019-03-17T00:28:06.679Z,991.97
2019-03-17T00:28:50.764Z,992.11
2019-03-17T00:29:31.768Z,992.17
2019-03-17T00:30:12.873Z,992.15
2019-03-17T00:30:54.354Z,992.12
2019-03-17T00:31:35.789Z,991.95
2019-03-17T00:32:18.154Z,992.08
2019-03-17T00:32:58.582Z,992.08
2019-03-17T00:33:40.747Z,991.97
2019-03-17T00:34:22.717Z,992.01
2019-03-17T00:35:06.962Z,991.98
2019-03-17T00:35:47.248Z,991.92
2019-03-17T00:36:30.734Z,992.01
2019-03-17T00:37:15.937Z,991.93
2019-03-17T00:37:57.598Z,991.86
2019-03-17T00:38:38.564Z,991.98
2019-03-17T00:39:19.954Z,992.03
2019-03-17T00:40:01.324Z,991.91
2019-03-17T00:40:41.731Z,991.86
2019-03-17T00:41:25.255Z,992.02
2019-03-17T00:42:16.213Z,991.8
2019-03-17T00:42:56.752Z,991.88
2019-03-17T00:43:38.709Z,991.89
2019-03-17T00:44:19.302Z,991.91
2019-03-17T00:45:03.330Z,991.75
2019-03-17T00:45:44.876Z,991.82
2019-03-17T00:46:28.794Z,991.86
2019-03-17T00:47:10.822Z,991.77
2019-03-17T00:47:51.324Z,991.7
2019-03-17T00:48:32.447Z,991.59
2019-03-17T00:49:15.250Z,991.64
2019-03-17T00:49:56.517Z,991.7
2019-03-17T00:50:40.667Z,991.58
2019-03-17T00:51:23.027Z,991.6
2019-03-17T00:52:05.249Z,991.71
2019-03-17T00:52:45.588Z,991.66
2019-03-17T00:53:26.011Z,991.58
2019-03-17T00:54:06.852Z,991.5
2019-03-17T00:54:47.445Z,991.55
2019-03-17T00:55:33.933Z,991.64
2019-03-17T00:56:20.197Z,991.57
2019-03-17T00:57:00.770Z,991.54
2019-03-17T00:57:45.844Z,991.39
2019-03-17T00:58:28.297Z,991.48
2019-03-17T00:59:10.987Z,991.49
2019-03-17T00:59:51.669Z,991.58
2019-03-17T01:00:35.910Z,991.53
2019-03-17T01:01:17.313Z,991.54
2019-03-17T01:01:59.561Z,991.48
2019-03-17T01:02:42.007Z,991.39
2019-03-17T01:03:25.073Z,991.36
2019-03-17T01:04:08.245Z,991.45
2019-03-17T01:04:56.319Z,991.37
2019-03-17T01:05:32.991Z,991.44
2019-03-17T01:06:13.498Z,991.45
2019-03-17T01:06:54.300Z,991.36
2019-03-17T01:07:40.594Z,991.34
2019-03-17T01:08:21.275Z,991.44
2019-03-17T01:09:03.393Z,991.25
2019-03-17T01:09:44.899Z,991.42
2019-03-17T01:10:26.290Z,991.33
2019-03-17T01:11:08.770Z,991.41
2019-03-17T01:11:51.326Z,991.32
2019-03-17T01:12:31.688Z,991.31
2019-03-17T01:13:12.441Z,991.35
2019-03-17T01:13:56.341Z,991.31
2019-03-17T01:14:37.082Z,991.3
2019-03-17T01:15:18.949Z,991.2
2019-03-17T01:15:59.325Z,991.39
2019-03-17T01:16:40.570Z,991.29
2019-03-17T01:17:27.014Z,991.31
2019-03-17T01:18:13.610Z,991.31
2019-03-17T01:18:54.019Z,991.34
2019-03-17T01:21:46.950Z,991.23
2019-03-17T01:22:35.718Z,991.19
2019-03-17T01:23:16.078Z,991.24
2019-03-17T01:23:56.529Z,991.23
2019-03-17T01:24:38.554Z,991.2
2019-03-17T01:25:22.809Z,991.01
2019-03-17T01:26:05.275Z,991.18
2019-03-17T01:26:49.367Z,991.15
2019-03-17T01:27:31.550Z,991.01
2019-03-17T01:28:13.604Z,991.2
2019-03-17T01:28:56.193Z,991.16
2019-03-17T01:29:41.035Z,991.16
2019-03-17T01:30:23.306Z,991.17
2019-03-17T01:31:05.430Z,991.18
2019-03-17T01:31:47.536Z,991.07
2019-03-17T01:32:29.953Z,991.07
2019-03-17T01:33:17.784Z,991.02
2019-03-17T01:33:58.264Z,991.1
2019-03-17T01:34:39.775Z,991.06
2019-03-17T01:35:21.311Z,991.03
2019-03-17T01:36:03.492Z,991.05
2019-03-17T01:36:47.941Z,990.96
2019-03-17T01:37:29.277Z,991.09
2019-03-17T01:38:12.998Z,991.12
2019-03-17T01:38:54.659Z,990.98
2019-03-17T01:39:35.051Z,990.82
2019-03-17T01:40:23.710Z,990.95
2019-03-17T01:41:04.220Z,991
2019-03-17T01:41:47.325Z,990.7
2019-03-17T01:42:27.860Z,990.64
2019-03-17T01:43:08.881Z,990.84
2019-03-17T01:43:50.475Z,990.86
2019-03-17T01:44:32.596Z,990.86
2019-03-17T01:45:13.987Z,990.86
2019-03-17T01:45:57.134Z,990.83
2019-03-17T01:57:31.608Z,990.54
2019-03-17T01:58:43.031Z,990.56
2019-03-17T02:00:39.091Z,990.62
2019-03-17T02:01:33.415Z,990.64
2019-03-17T02:03:45.725Z,990.65
2019-03-17T02:20:00.958Z,990.82
2019-03-17T02:20:43.132Z,990.74
2019-03-17T02:21:23.690Z,990.7
2019-03-17T02:22:05.789Z,990.71
2019-03-17T02:22:46.258Z,990.73
2019-03-17T02:23:27.207Z,990.71
2019-03-17T02:24:07.213Z,990.7
2019-03-17T02:24:49.154Z,990.65
2019-03-17T02:25:32.958Z,990.66
2019-03-17T02:26:14.370Z,990.69
2019-03-17T02:26:54.790Z,990.7
2019-03-17T02:27:36.414Z,990.71
2019-03-17T02:28:20.270Z,990.64
2019-03-17T02:29:07.011Z,990.71
2019-03-17T02:29:51.035Z,990.63
2019-03-17T02:30:33.668Z,990.6
2019-03-17T02:31:15.758Z,990.58
2019-03-17T02:31:58.633Z,990.63
2019-03-17T02:32:42.282Z,990.49
2019-03-17T02:33:23.040Z,990.53
2019-03-17T02:34:05.334Z,990.52
2019-03-17T02:34:45.637Z,990.5
2019-03-17T02:35:38.388Z,990.46
2019-03-17T02:36:13.847Z,990.52
2019-03-17T02:36:54.015Z,990.54
2019-03-17T02:37:38.411Z,990.43
2019-03-17T02:38:19.115Z,990.47
2019-03-17T02:38:59.478Z,990.47
2019-03-17T02:39:42.869Z,990.52
2019-03-17T02:40:23.359Z,990.46
2019-03-17T02:41:09.542Z,990.4
2019-03-17T02:41:54.132Z,990.37
2019-03-17T02:42:34.706Z,990.32
2019-03-17T02:43:15.973Z,990.36
2019-03-17T02:43:57.270Z,990.39
2019-03-17T02:44:37.612Z,990.29
2019-03-17T02:45:22.874Z,990.37
2019-03-17T02:46:07.242Z,990.33
2019-03-17T02:46:49.303Z,990.42
2019-03-17T02:47:31.517Z,990.38
2019-03-17T02:48:11.985Z,990.31
2019-03-17T02:48:53.363Z,990.34
2019-03-17T02:49:34.061Z,990.42
2019-03-17T02:50:16.341Z,990.24
2019-03-17T02:50:58.425Z,990.45
2019-03-17T02:51:40.816Z,990.31
2019-03-17T02:52:23.788Z,990.3
2019-03-17T02:53:05.352Z,990.4
2019-03-17T02:53:49.185Z,990.32
2019-03-17T02:54:31.999Z,990.32
2019-03-17T02:55:13.411Z,990.29
2019-03-17T02:55:57.521Z,990.33
2019-03-17T02:56:38.865Z,990.32
2019-03-17T02:57:21.766Z,990.33
2019-03-17T02:58:02.215Z,990.35
2019-03-17T02:58:43.569Z,990.26
2019-03-17T02:59:26.232Z,990.27
2019-03-17T03:00:06.944Z,990.27
2019-03-17T03:00:49.053Z,990.26
2019-03-17T03:01:31.017Z,990.31
2019-03-17T03:02:20.149Z,990.28
2019-03-17T03:03:02.147Z,990.28
2019-03-17T03:03:42.686Z,990.29
2019-03-17T03:04:25.805Z,990.23
2019-03-17T03:05:06.374Z,990.23
2019-03-17T03:05:54.402Z,990.24
2019-03-17T03:06:27.846Z,990.18
2019-03-17T03:07:10.099Z,990.24
2019-03-17T03:07:50.883Z,990.25
2019-03-17T03:08:33.363Z,990.21
2019-03-17T03:09:13.951Z,990.23
2019-03-17T03:09:57.587Z,990.23
2019-03-17T03:10:39.194Z,990.11
2019-03-17T03:11:22.967Z,990.12
2019-03-17T03:12:05.565Z,990.09
2019-03-17T03:12:47.368Z,989.98
2019-03-17T03:13:28.450Z,989.99
2019-03-17T03:14:11.533Z,989.98
2019-03-17T03:14:51.965Z,989.93
2019-03-17T03:15:35.437Z,989.91
2019-03-17T03:16:17.658Z,989.99
2019-03-17T03:17:00.044Z,989.95
2019-03-17T03:17:41.592Z,989.86
2019-03-17T03:18:23.695Z,989.9
2019-03-17T03:19:06.134Z,989.94
2019-03-17T03:19:48.553Z,989.81
2019-03-17T03:20:29.531Z,989.65
2019-03-17T03:21:10.783Z,989.8
2019-03-17T03:21:52.107Z,989.79
2019-03-17T03:22:32.734Z,989.68
2019-03-17T03:23:13.249Z,989.74
2019-03-17T03:23:55.372Z,989.74
2019-03-17T03:24:37.759Z,989.81
2019-03-17T03:25:22.815Z,989.37
2019-03-17T03:26:05.169Z,989.77
2019-03-17T03:26:47.398Z,989.79
2019-03-17T03:27:30.612Z,989.72
2019-03-17T03:28:12.292Z,989.65
2019-03-17T03:28:56.118Z,989.72
2019-03-17T03:29:40.003Z,989.76
2019-03-17T03:30:21.311Z,989.72
2019-03-17T03:31:03.375Z,989.78
2019-03-17T03:31:46.779Z,989.83
2019-03-17T03:32:27.307Z,989.75
2019-03-17T03:33:09.317Z,989.79
2019-03-17T03:33:51.956Z,989.82
2019-03-17T03:34:33.882Z,989.81
2019-03-17T03:35:15.463Z,989.89
2019-03-17T03:36:09.746Z,989.76
2019-03-17T03:36:40.127Z,989.81
2019-03-17T03:37:23.353Z,989.79
2019-03-17T03:38:06.226Z,989.73
2019-03-17T03:38:47.577Z,989.82
2019-03-17T03:39:28.521Z,989.83
2019-03-17T03:40:09.053Z,989.86
2019-03-17T03:40:50.016Z,989.82
2019-03-17T03:41:32.235Z,989.83
2019-03-17T03:42:13.393Z,989.88
2019-03-17T03:42:55.675Z,989.77
2019-03-17T03:43:43.079Z,989.78
2019-03-17T03:44:26.994Z,989.66
2019-03-17T03:45:09.278Z,989.83
2019-03-17T03:45:50.296Z,989.75
2019-03-17T03:46:30.650Z,989.71
2019-03-17T03:47:11.124Z,989.89
2019-03-17T03:47:53.069Z,989.8
2019-03-17T03:48:34.204Z,989.79
2019-03-17T03:49:14.963Z,989.8
2019-03-17T03:49:59.271Z,989.77
2019-03-17T03:50:40.947Z,989.82
2019-03-17T03:51:21.780Z,989.86
2019-03-17T03:52:02.611Z,989.85
2019-03-17T03:52:44.496Z,989.84
2019-03-17T03:53:25.173Z,989.86
2019-03-17T03:54:07.434Z,989.84
2019-03-17T03:54:47.777Z,989.82
2019-03-17T03:55:29.160Z,989.78
2019-03-17T03:56:14.680Z,989.81
2019-03-17T03:56:55.894Z,989.82
2019-03-17T03:57:38.144Z,989.84
2019-03-17T03:58:20.230Z,989.74
2019-03-17T03:59:03.039Z,989.71
2019-03-17T03:59:54.273Z,989.71
2019-03-17T04:00:35.550Z,989.78
2019-03-17T04:01:19.445Z,989.69
2019-03-17T04:02:03.019Z,989.76
2019-03-17T04:02:44.341Z,989.74
2019-03-17T04:03:26.084Z,989.74
2019-03-17T04:04:06.457Z,989.75
2019-03-17T04:04:48.560Z,989.71
2019-03-17T04:05:32.782Z,989.7
2019-03-17T04:10:42.917Z,989.75
2019-03-17T04:15:32.860Z,989.73
2019-03-17T04:16:16.266Z,989.72
2019-03-17T04:16:58.375Z,989.74
2019-03-17T04:17:42.480Z,989.76
2019-03-17T04:18:29.758Z,989.67
2019-03-17T04:19:12.506Z,989.69
2019-03-17T04:19:52.882Z,989.68
2019-03-17T04:20:38.262Z,989.68
2019-03-17T04:21:18.428Z,989.66
2019-03-17T04:22:01.376Z,989.65
2019-03-17T04:22:43.635Z,989.71
2019-03-17T04:23:28.394Z,989.65
2019-03-17T04:24:10.584Z,989.7
2019-03-17T04:24:50.977Z,989.68
2019-03-17T04:25:39.070Z,989.77
2019-03-17T04:26:21.461Z,989.72
2019-03-17T04:27:02.355Z,989.72
2019-03-17T04:27:42.742Z,989.73
2019-03-17T05:14:35.789Z,989.67
2019-03-17T05:17:04.036Z,989.5
2019-03-17T05:32:57.238Z,989.84
2019-03-17T05:42:05.877Z,989.75
2019-03-17T05:44:13.586Z,989.87
2019-03-17T05:47:57.049Z,990
2019-03-17T05:53:16.753Z,989.88
2019-03-17T05:53:59.627Z,989.94
2019-03-17T05:54:42.109Z,989.86
2019-03-17T05:55:22.537Z,989.9
2019-03-17T05:56:04.917Z,989.86
2019-03-17T05:56:46.860Z,989.93
2019-03-17T05:57:29.194Z,990.11
2019-03-17T05:58:11.815Z,989.88
2019-03-17T05:58:52.214Z,989.94
2019-03-17T05:59:32.620Z,989.94
2019-03-17T06:00:17.213Z,989.94
2019-03-17T06:00:58.265Z,989.98
2019-03-17T06:01:41.351Z,989.94
2019-03-17T06:02:21.763Z,989.97
2019-03-17T06:03:03.836Z,990
2019-03-17T06:03:44.439Z,990.03
2019-03-17T06:04:29.388Z,990.08
2019-03-17T06:05:12.252Z,990.11
2019-03-17T06:05:53.099Z,990.09
2019-03-17T06:06:35.215Z,990.09
2019-03-17T06:13:42.027Z,990.2
2019-03-17T06:14:20.219Z,990.14
2019-03-17T06:15:05.552Z,990.2
2019-03-17T06:15:52.096Z,990.21
2019-03-17T06:16:36.438Z,990.21
2019-03-17T06:17:16.836Z,990.25
2019-03-17T06:18:01.966Z,990.24
2019-03-17T06:18:46.367Z,990.3
2019-03-17T06:19:28.403Z,990.27
2019-03-17T06:20:09.734Z,990.29
2019-03-17T06:20:51.135Z,990.31
2019-03-17T06:21:32.384Z,990.3
2019-03-17T06:43:55.240Z,990.44
2019-03-17T06:44:36.889Z,990.46
2019-03-17T06:45:19.091Z,990.48
2019-03-17T06:46:00.322Z,990.49
2019-03-17T06:46:41.267Z,990.43
2019-03-17T06:47:24.841Z,990.39
2019-03-17T06:48:07.209Z,990.48
2019-03-17T06:48:49.153Z,990.46
2019-03-17T06:49:32.039Z,990.48
2019-03-17T06:50:15.363Z,990.36
2019-03-17T06:50:58.449Z,990.48
2019-03-17T06:51:38.800Z,990.41
2019-03-17T06:52:22.859Z,990.37
2019-03-17T06:53:13.114Z,990.15
2019-03-17T06:53:56.480Z,990.49
2019-03-17T06:54:38.216Z,990.41
2019-03-17T06:55:18.659Z,990.57
2019-03-17T06:55:59.040Z,990.49
2019-03-17T06:56:41.505Z,990.53
2019-03-17T06:57:23.653Z,990.58
2019-03-17T06:58:04.237Z,990.38
2019-03-17T06:58:44.768Z,990.43
2019-03-17T06:59:27.995Z,990.53
2019-03-17T07:00:08.264Z,990.53
2019-03-17T07:00:48.748Z,990.42
2019-03-17T07:01:34.764Z,990.48
2019-03-17T07:02:15.772Z,990.32
2019-03-17T07:02:56.094Z,990.42
2019-03-17T07:03:36.516Z,990.56
2019-03-17T07:04:18.584Z,990.53
2019-03-17T07:04:58.905Z,990.52
2019-03-17T07:05:39.428Z,990.59
2019-03-17T07:06:21.427Z,990.49
2019-03-17T07:07:04.097Z,990.68
2019-03-17T07:07:48.275Z,990.54
2019-03-17T07:08:28.678Z,990.47
2019-03-17T07:09:10.098Z,990.59
2019-03-17T07:09:52.351Z,990.58
2019-03-17T07:10:34.816Z,990.52
2019-03-17T07:11:15.102Z,990.66
2019-03-17T07:11:57.476Z,990.68
2019-03-17T07:12:38.294Z,990.56
2019-03-17T07:13:19.012Z,990.75
2019-03-17T07:13:59.234Z,990.68
2019-03-17T07:14:42.375Z,990.65
2019-03-17T07:15:23.935Z,990.61
2019-03-17T07:16:04.592Z,990.59
2019-03-17T07:16:45.823Z,990.51
2019-03-17T07:29:38.254Z,990.91
2019-03-17T07:30:19.526Z,991.08
2019-03-17T07:31:03.298Z,990.79
2019-03-17T07:31:43.861Z,990.89
2019-03-17T07:32:24.254Z,991.05
2019-03-17T07:33:06.685Z,991.01
2019-03-17T07:33:53.739Z,991.08
2019-03-17T07:34:36.035Z,991.12
2019-03-17T07:35:18.287Z,991.15
2019-03-17T07:36:01.380Z,991.28
2019-03-17T07:36:41.707Z,991.27
2019-03-17T07:37:27.657Z,991.42
2019-03-17T07:38:09.695Z,991.55
2019-03-17T07:38:51.258Z,991.47
2019-03-17T07:39:32.205Z,991.58
2019-03-17T07:40:13.740Z,991.66
2019-03-17T07:40:54.200Z,991.61
2019-03-17T07:41:34.699Z,991.47
2019-03-17T07:42:15.099Z,991.58
2019-03-17T07:42:55.397Z,991.55
2019-03-17T07:43:36.687Z,991.68
2019-03-17T07:44:18.856Z,991.63
2019-03-17T07:45:00.342Z,991.67
2019-03-17T07:45:42.384Z,991.61
2019-03-17T07:46:23.552Z,991.66
2019-03-17T07:47:04.089Z,991.64
2019-03-17T07:47:44.563Z,991.66
2019-03-17T07:48:24.732Z,991.65
2019-03-17T07:49:08.558Z,991.63
2019-03-17T07:49:52.787Z,991.48
2019-03-17T07:50:33.257Z,991.72
2019-03-17T07:51:13.827Z,991.75
2019-03-17T07:51:57.761Z,991.64
2019-03-17T07:52:38.094Z,991.67
2019-03-17T07:53:19.450Z,991.57
2019-03-17T07:54:00.003Z,991.63
2019-03-17T07:54:42.185Z,991.58
2019-03-17T07:55:22.691Z,991.74
2019-03-17T07:56:03.053Z,991.74
2019-03-17T07:56:44.388Z,991.68
2019-03-17T07:57:24.771Z,991.81
2019-03-17T07:58:05.398Z,991.77
2019-03-17T07:58:45.782Z,991.74
2019-03-17T07:59:27.168Z,991.73
2019-03-17T08:00:07.657Z,991.91
2019-03-17T08:00:49.985Z,991.9
2019-03-17T08:01:32.407Z,991.94
2019-03-17T08:02:13.379Z,991.74
2019-03-17T08:02:53.811Z,991.95
2019-03-17T08:03:34.141Z,991.93
2019-03-17T08:04:14.757Z,991.93
2019-03-17T08:04:55.045Z,991.96
2019-03-17T08:05:35.549Z,991.95
2019-03-17T08:06:16.013Z,991.99
2019-03-17T08:06:56.409Z,991.97
2019-03-17T08:07:36.733Z,991.95
2019-03-17T08:08:17.263Z,991.99
2019-03-17T08:08:57.634Z,992.03
2019-03-17T08:09:39.419Z,991.94
2019-03-17T08:10:19.779Z,991.91
2019-03-17T08:11:00.195Z,991.96
2019-03-17T08:11:40.564Z,991.95
2019-03-17T08:12:20.943Z,992.12
2019-03-17T08:13:02.690Z,992.06
2019-03-17T08:13:43.794Z,991.98
2019-03-17T08:14:25.418Z,991.97
2019-03-17T08:15:07.807Z,991.92
2019-03-17T08:15:50.093Z,991.85
2019-03-17T08:16:35.132Z,991.95
2019-03-17T08:17:15.592Z,991.84
2019-03-17T08:17:59.843Z,992.03
2019-03-17T08:18:50.871Z,991.96
2019-03-17T08:19:31.178Z,991.98
2019-03-17T08:20:13.174Z,992
2019-03-17T08:20:53.532Z,991.94
2019-03-17T08:21:35.810Z,992
2019-03-17T08:22:16.443Z,992
2019-03-17T08:22:56.887Z,992.03
2019-03-17T08:23:39.320Z,992
2019-03-17T08:24:21.643Z,991.99
2019-03-17T08:25:03.646Z,991.98
2019-03-17T08:25:45.028Z,992
2019-03-17T08:26:25.398Z,991.98
2019-03-17T08:27:08.548Z,991.98
2019-03-17T08:27:48.950Z,991.97
2019-03-17T08:28:30.885Z,991.97
2019-03-17T08:29:11.255Z,991.99
2019-03-17T08:29:51.655Z,992.02
2019-03-17T08:30:32.056Z,992
2019-03-17T08:31:12.904Z,992.03
2019-03-17T08:31:56.242Z,992.03
2019-03-17T08:32:40.963Z,992.05
2019-03-17T08:33:19.081Z,992.1
2019-03-17T08:33:59.667Z,992.07
2019-03-17T08:34:44.577Z,992.05
2019-03-17T08:35:26.738Z,992.1
2019-03-17T08:36:07.138Z,992.04
2019-03-17T08:36:47.519Z,992.11
2019-03-17T08:37:28.174Z,992.1
2019-03-17T08:38:17.239Z,991.97
2019-03-17T08:38:51.759Z,992.14
2019-03-17T08:39:32.188Z,992.2
2019-03-17T08:40:14.504Z,992.18
2019-03-17T08:40:54.860Z,992.23
2019-03-17T08:41:37.687Z,992.2
2019-03-17T08:42:19.508Z,992.21
2019-03-17T08:43:00.725Z,992.15
2019-03-17T08:43:53.655Z,992.17
2019-03-17T08:44:24.659Z,992.28
2019-03-17T08:45:11.446Z,992.33
2019-03-17T08:45:52.703Z,992.3
2019-03-17T08:46:35.038Z,992.36
2019-03-17T08:47:25.622Z,992.41
2019-03-17T08:48:08.693Z,992.35
2019-03-17T08:48:50.910Z,992.33
2019-03-17T08:49:33.128Z,992.33
2019-03-17T08:50:16.286Z,992.41
2019-03-17T08:50:57.439Z,992.37
2019-03-17T08:51:37.867Z,992.47
2019-03-17T08:52:19.712Z,992.4
2019-03-17T08:53:11.725Z,992.38
2019-03-17T08:53:52.012Z,992.4
2019-03-17T08:54:32.600Z,992.3
2019-03-17T08:55:14.791Z,992.31
2019-03-17T08:55:55.535Z,992.29
2019-03-17T08:56:35.923Z,992.31
2019-03-17T08:57:17.123Z,992.26
2019-03-17T08:57:59.063Z,992.26
2019-03-17T08:58:39.389Z,992.35
2019-03-17T08:59:19.764Z,992.43
2019-03-17T09:00:04.560Z,992.44
2019-03-17T09:00:46.053Z,992.54
2019-03-17T09:01:26.665Z,992.46
2019-03-17T09:02:13.204Z,992.28
2019-03-17T09:02:54.527Z,992.34
2019-03-17T09:03:37.977Z,992.39
2019-03-17T09:04:18.152Z,992.43
2019-03-17T09:04:58.604Z,992.45
2019-03-17T09:05:47.703Z,992.35
2019-03-17T09:06:30.377Z,992.4
2019-03-17T09:07:11.715Z,992.43
2019-03-17T09:07:53.830Z,992.39
2019-03-17T09:08:36.254Z,992.35
2019-03-17T09:09:17.010Z,992.27
2019-03-17T09:09:58.338Z,992.24
2019-03-17T09:10:38.670Z,992.38
2019-03-17T09:11:19.750Z,992.37
2019-03-17T09:12:00.161Z,992.37
2019-03-17T09:12:40.536Z,992.41
2019-03-17T09:13:21.006Z,992.45
2019-03-17T09:14:02.222Z,992.43
2019-03-17T09:14:46.047Z,992.53
2019-03-17T09:15:26.546Z,992.53
2019-03-17T09:16:07.008Z,992.62
2019-03-17T09:16:47.330Z,992.66
2019-03-17T09:17:27.688Z,992.67
2019-03-17T09:18:08.095Z,992.63
2019-03-17T09:18:48.457Z,992.65
2019-03-17T09:19:30.666Z,992.71
2019-03-17T09:20:12.065Z,992.78
2019-03-17T09:20:52.974Z,992.73
2019-03-17T09:21:34.247Z,992.75
2019-03-17T09:22:14.659Z,992.82
2019-03-17T09:22:56.089Z,992.75
2019-03-17T09:23:36.423Z,992.71
2019-03-17T09:24:17.889Z,992.77
2019-03-17T09:24:58.273Z,992.65
2019-03-17T09:25:42.259Z,992.71
2019-03-17T09:26:24.407Z,992.76
2019-03-17T09:27:06.814Z,992.73
2019-03-17T09:27:47.299Z,992.79
2019-03-17T09:28:27.620Z,992.77
2019-03-17T09:29:08.092Z,992.75
2019-03-17T09:29:51.201Z,992.82
2019-03-17T09:30:31.804Z,992.79
2019-03-17T09:31:12.187Z,992.81
2019-03-17T09:31:54.614Z,992.7
2019-03-17T09:32:36.019Z,992.78
2019-03-17T09:33:19.307Z,992.82
2019-03-17T09:33:59.579Z,992.81
2019-03-17T09:34:40.923Z,992.77
2019-03-17T09:35:23.161Z,992.77
2019-03-17T09:36:14.661Z,992.84
2019-03-17T09:36:56.850Z,992.83
2019-03-17T09:37:38.939Z,992.91
2019-03-17T09:38:19.293Z,992.81
2019-03-17T09:39:08.876Z,992.92
2019-03-17T09:39:49.315Z,992.71
2019-03-17T09:40:29.723Z,992.8
2019-03-17T09:41:12.219Z,992.78
2019-03-17T09:41:55.510Z,992.85
2019-03-17T09:42:38.272Z,992.84
2019-03-17T09:43:20.491Z,992.87
2019-03-17T09:44:03.363Z,992.96
2019-03-17T09:44:43.704Z,992.7
2019-03-17T09:45:24.151Z,992.73
2019-03-17T09:46:06.482Z,992.82
2019-03-17T09:46:51.555Z,992.8
2019-03-17T09:47:32.463Z,992.82
2019-03-17T09:48:16.207Z,992.8
2019-03-17T09:48:56.611Z,992.88
2019-03-17T09:49:39.453Z,992.85
2019-03-17T09:50:19.967Z,992.92
2019-03-17T09:51:01.129Z,992.94
2019-03-17T10:02:29.555Z,993.02
2019-03-17T10:03:15.706Z,993.08
2019-03-17T10:03:57.103Z,993.06
2019-03-17T10:06:09.363Z,993.08
2019-03-17T10:07:01.854Z,993.06
2019-03-17T10:11:00.662Z,992.97
2019-03-17T10:11:40.962Z,992.9
2019-03-17T10:12:21.920Z,992.97
2019-03-17T10:13:02.339Z,993.04
2019-03-17T10:13:45.355Z,992.94
2019-03-17T10:14:26.147Z,992.97
2019-03-17T10:15:25.922Z,993.05
2019-03-17T10:16:06.271Z,993.11
2019-03-17T10:16:47.035Z,993.1
2019-03-17T10:17:28.348Z,993.14
2019-03-17T10:18:09.672Z,993.24
2019-03-17T10:18:51.826Z,993.22
2019-03-17T10:19:34.157Z,993.23
2019-03-17T10:20:15.471Z,993.2
2019-03-17T10:20:56.782Z,993.26
2019-03-17T10:21:37.333Z,993.23
2019-03-17T10:22:17.593Z,993.34
2019-03-17T10:22:58.216Z,993.21
2019-03-17T10:23:40.663Z,993.34
2019-03-17T10:24:22.866Z,993.18
2019-03-17T10:25:05.046Z,993.32
2019-03-17T10:25:45.374Z,993.37
2019-03-17T10:26:26.031Z,993.35
2019-03-17T10:27:06.587Z,993.35
2019-03-17T10:27:59.073Z,993.39
2019-03-17T10:28:39.572Z,993.26
2019-03-17T10:29:30.544Z,993.4
2019-03-17T11:07:15.978Z,993.54
2019-03-17T11:07:55.451Z,993.39
2019-03-17T11:08:35.848Z,993.69
2019-03-17T11:09:24.929Z,993.49
2019-03-17T11:09:58.163Z,993.59
2019-03-17T11:10:40.374Z,993.58
2019-03-17T11:11:20.677Z,993.59
2019-03-17T11:12:01.180Z,993.67
2019-03-17T11:12:41.504Z,993.61
2019-03-17T11:13:24.542Z,993.63
2019-03-17T11:14:06.388Z,993.77
2019-03-17T11:14:46.296Z,993.6
2019-03-17T11:15:27.098Z,993.66
2019-03-17T11:16:07.513Z,993.74
2019-03-17T11:16:47.903Z,993.84
2019-03-17T11:17:28.279Z,993.79
2019-03-17T11:18:08.746Z,993.83
2019-03-17T11:18:50.076Z,993.87
2019-03-17T11:19:30.465Z,993.81
2019-03-17T11:20:10.875Z,993.9
2019-03-17T11:20:51.255Z,993.87
2019-03-17T11:21:31.688Z,993.9
2019-03-17T11:22:14.770Z,993.94
2019-03-17T11:22:55.242Z,993.87
2019-03-17T11:23:35.608Z,993.82
2019-03-17T11:24:15.978Z,993.87
2019-03-17T11:25:00.460Z,993.88
2019-03-17T11:25:40.887Z,993.8
2019-03-17T11:26:22.060Z,993.87
2019-03-17T11:27:02.597Z,993.9
2019-03-17T11:27:44.030Z,993.93
2019-03-17T11:28:28.483Z,993.88
2019-03-17T11:29:09.661Z,993.83
2019-03-17T11:29:51.849Z,993.68
2019-03-17T11:30:32.198Z,993.87
2019-03-17T11:31:12.549Z,993.94
2019-03-17T11:31:53.964Z,993.98
2019-03-17T11:32:38.161Z,993.83
2019-03-17T11:33:18.508Z,993.85
2019-03-17T11:34:01.017Z,993.95
2019-03-17T11:34:41.614Z,993.74
2019-03-17T11:35:23.627Z,993.9
2019-03-17T11:36:04.206Z,993.89
2019-03-17T11:36:44.681Z,993.89
2019-03-17T11:37:26.778Z,993.9
2019-03-17T11:38:08.975Z,993.78
2019-03-17T11:38:51.280Z,994.04
2019-03-17T11:39:37.476Z,993.88
2019-03-17T11:40:12.239Z,993.77
2019-03-17T11:40:53.174Z,994.06
2019-03-17T11:41:33.570Z,993.96
2019-03-17T11:42:14.545Z,993.91
2019-03-17T11:42:54.855Z,994
2019-03-17T11:43:35.264Z,993.95
2019-03-17T11:44:19.419Z,994.02
2019-03-17T11:45:00.754Z,993.75
2019-03-17T11:45:41.205Z,994.07
2019-03-17T11:46:21.560Z,994.05
2019-03-17T11:47:02.639Z,993.86
2019-03-17T11:47:44.067Z,994.16
2019-03-17T11:48:27.950Z,993.89
2019-03-17T11:49:13.285Z,994.07
2019-03-17T11:49:53.554Z,994.04
2019-03-17T11:50:34.292Z,994.04
2019-03-17T11:51:14.444Z,993.97
2019-03-17T11:51:56.739Z,993.87
2019-03-17T11:52:37.290Z,993.82
2019-03-17T11:53:19.263Z,993.85
2019-03-17T11:54:00.694Z,994.01
2019-03-17T11:54:43.693Z,993.7
2019-03-17T11:55:25.203Z,993.99
2019-03-17T11:56:05.555Z,993.93
2019-03-17T11:56:46.921Z,993.98
2019-03-17T11:57:27.279Z,994.02
2019-03-17T11:58:08.052Z,994
2019-03-17T11:58:48.852Z,993.98
2019-03-17T11:59:29.433Z,993.97
2019-03-17T12:00:11.459Z,994.05
2019-03-17T12:00:54.206Z,993.98
2019-03-17T12:01:34.632Z,993.89
2019-03-17T12:02:25.949Z,994.06
2019-03-17T12:02:57.714Z,993.82
2019-03-17T12:03:39.108Z,994.04
2019-03-17T12:04:19.662Z,993.93
2019-03-17T12:05:02.119Z,994.09
2019-03-17T12:05:45.774Z,993.94
2019-03-17T12:06:27.979Z,993.93
2019-03-17T12:07:08.492Z,993.83
2019-03-17T12:07:50.993Z,993.98
2019-03-17T12:08:33.898Z,994.06
2019-03-17T12:09:28.064Z,994.01
2019-03-17T12:09:56.552Z,993.85
2019-03-17T12:10:39.585Z,993.78
2019-03-17T12:11:19.988Z,994.03
2019-03-17T12:12:00.398Z,994.09
2019-03-17T12:12:40.750Z,993.97
2019-03-17T12:13:25.225Z,994
2019-03-17T12:14:05.677Z,994.04
2019-03-17T12:14:46.245Z,994.08
2019-03-17T12:15:26.614Z,994.02
2019-03-17T12:16:09.677Z,994.09
2019-03-17T12:16:51.137Z,993.96
2019-03-17T12:17:31.483Z,993.71
2019-03-17T12:18:12.845Z,994.16
2019-03-17T12:18:54.285Z,993.9
2019-03-17T12:19:34.661Z,994.01
2019-03-17T12:20:16.686Z,994.12